Acequia, ID

11:34 PM MDT on August 28, 2014 (GMT -0600)
ITD Heyburn Interchange ID US | Change Station
CLOSE
Current Station
Personal Weather Station
Location: Heyburn, ID
Elevation: 4161 ft
Nearby Weather Stations

Elev 4161 ft 42.57 °N, 113.73 °W | Updated 49 minutes ago

Clear
Clear
63 °F
Feels Like 63 °F
N
6
Wind Variable Wind from SSW
Gusts 7.0 mph

Today
High -- | Low -- °F
--% Chance of Precip.
Yesterday
High -- | Low -- °F
Precip. -- in
6:55 AM 8:15 PM
Waxing Crescent, 12% visible
Pressure 29.93 in
Visibility 10.0 miles
Clouds Clear
Dew Point 48 °F
Humidity 59%
Rainfall -999.00 in
Snow Depth Not available.
UV 0 out of 12
Pollen 8.60 out of 12
Air Quality Not available.
Flu Activity Not available.
METAR KBYI 290453Z AUTO 18003KT 10SM CLR 17/11 A3004 RMK AO2 SLP133 T01670111

More Conditions Fewer Conditions

Pressure 29.93 in
Visibility 10.0 miles
Clouds Clear
Dew Point 48 °F
Humidity 59%
Rainfall -999.00 in
Snow Depth Not available.
UV 0 out of 12
Pollen 8.60 out of 12
Air Quality Not available.
Flu Activity Not available.
METAR KBYI 290453Z AUTO 18003KT 10SM CLR 17/11 A3004 RMK AO2 SLP133 T01670111

More Conditions Fewer Conditions

10-Day Weather Forecast

Almanac

Astronomy

Aug. 28, 2014 Rise Set
Actual Time 6:55 AM MDT 8:15 PM MDT
Civil Twilight 6:26 AM MDT 8:45 PM MDT
Nautical Twilight 5:51 AM MDT 9:20 PM MDT
Astronomical Twilight 5:13 AM MDT 9:57 PM MDT
Moon 9:56 AM MDT (8/28) 9:36 PM MDT (8/28)
Length of Visible Light 14h 18m
Length of Day
13h 20m
Tomorrow will be 2m 44s shorter.
Waxing Crescent, 12% of the Moon is Illuminated
Aug 29
Waxing Crescent
Sep 2
First Quarter
Sep 8
Full
Sep 15
Last Quarter
Sep 24
New

Yesterday's Extremes

State Highs State Lows

Community

WunderPhotos

Upload Photos

1,748,196 photos uploaded!

Nearby

Snow Depth

Station Depth Elevation
Magic Mountain 0 in 6880 ft
Wildhorse Divide 0 in 6490 ft
Swede Peak 0 in 7640 ft
Hyndman 0 in 7440 ft
Bear Canyon 0 in 7900 ft

Earthquake Activity

City Distance Mag. Time & Date
No recent earthquake activity has been reported nearby.
Minimum magnitude displayed is 2.5.

Coastal Water Temperatures

Place Temperature
No Stations Reporting

Nearby Weather Stations